Time;durP1;ratioP1;P1;durP2;ratioP2;P2;SDS_P1;SDS_P2;PMS_P1;PMS_P2;Temp;Humidity;BMP_temperature;BMP_pressure;BME280_temperature;BME280_humidity;BME280_pressure;Samples;Min_cycle;Max_cycle;Signal;HPM_P1;HPM_P2
2021/04/03 00:00:19;;;;;;;34.22;30.80;;;;;;;;;;5073908;28;20288;-75
2021/04/03 00:02:47;;;;;;;33.30;30.25;;;;;;;;;;5073896;28;20189;-75
2021/04/03 00:05:15;;;;;;;33.78;30.55;;;;;;;;;;5073478;28;20198;-76
2021/04/03 00:07:42;;;;;;;32.95;29.92;;;;;;;;;;5073689;28;20196;-75
2021/04/03 00:10:09;;;;;;;30.95;28.35;;;;;;;;;;5073644;28;20306;-75
2021/04/03 00:12:36;;;;;;;33.63;30.45;;;;;;;;;;5073641;28;20314;-75
2021/04/03 00:15:04;;;;;;;31.98;28.42;;;;;;;;;;5073230;28;20203;-75
2021/04/03 00:17:31;;;;;;;30.02;27.30;;;;;;;;;;5072395;28;20227;-75
2021/04/03 00:19:58;;;;;;;28.88;25.95;;;;;;;;;;5073071;28;20192;-76
2021/04/03 00:22:25;;;;;;;26.58;24.48;;;;;;;;;;5072210;28;20671;-75
2021/04/03 00:24:53;;;;;;;34.72;25.15;;;;;;;;;;5072253;28;20199;-75
2021/04/03 00:27:20;;;;;;;26.75;24.63;;;;;;;;;;5074273;28;20195;-75
2021/04/03 00:29:46;;;;;;;27.02;24.52;;;;;;;;;;5077395;28;20190;-75
2021/04/03 00:32:14;;;;;;;26.55;24.20;;;;;;;;;;5077583;28;20188;-76
2021/04/03 00:34:41;;;;;;;22.75;20.70;;;;;;;;;;5077022;28;20220;-75
2021/04/03 00:37:09;;;;;;;24.77;21.27;;;;;;;;;;5077095;28;20237;-75
2021/04/03 00:39:35;;;;;;;22.38;20.63;;;;;;;;;;5077183;28;20552;-75
2021/04/03 00:42:12;;;;;;;23.42;21.40;;;;;;;;;;5077457;28;20193;-75
2021/04/03 00:44:39;;;;;;;23.00;20.70;;;;;;;;;;5077306;28;20192;-75
2021/04/03 00:47:05;;;;;;;24.38;21.33;;;;;;;;;;5076979;28;20196;-75
2021/04/03 00:49:32;;;;;;;23.20;21.45;;;;;;;;;;5077226;28;20189;-75
2021/04/03 00:52:03;;;;;;;24.50;22.45;;;;;;;;;;5076852;28;20317;-75
2021/04/03 00:54:31;;;;;;;20.63;19.08;;;;;;;;;;5076734;28;20332;-75
2021/04/03 00:56:57;;;;;;;21.90;20.15;;;;;;;;;;5076518;28;20208;-75
2021/04/03 00:59:24;;;;;;;20.67;19.02;;;;;;;;;;5077126;28;20194;-75
2021/04/03 01:01:51;;;;;;;22.42;20.38;;;;;;;;;;5076790;28;20196;-75
2021/04/03 01:04:18;;;;;;;22.33;20.40;;;;;;;;;;5076530;28;20543;-75
2021/04/03 01:06:45;;;;;;;22.92;21.10;;;;;;;;;;5076580;28;20204;-75
2021/04/03 01:09:12;;;;;;;22.63;19.95;;;;;;;;;;5076556;28;20183;-75
2021/04/03 01:11:42;;;;;;;22.38;20.35;;;;;;;;;;5076482;28;20223;-75
2021/04/03 01:14:12;;;;;;;26.80;21.65;;;;;;;;;;5076695;28;20594;-75
2021/04/03 01:16:40;;;;;;;23.30;20.90;;;;;;;;;;5076140;28;20585;-75
2021/04/03 01:19:15;;;;;;;22.52;20.58;;;;;;;;;;5075389;28;20211;-75
2021/04/03 01:21:58;;;;;;;22.10;20.40;;;;;;;;;;5076398;28;20183;-76
2021/04/03 01:24:32;;;;;;;25.40;20.35;;;;;;;;;;5076536;28;20214;-76
2021/04/03 01:27:13;;;;;;;21.90;19.77;;;;;;;;;;5075115;28;20286;-75
2021/04/03 01:29:52;;;;;;;21.98;20.15;;;;;;;;;;5076516;28;20191;-75
2021/04/03 01:32:23;;;;;;;21.92;20.15;;;;;;;;;;5076509;28;20191;-75
2021/04/03 01:34:50;;;;;;;21.70;19.85;;;;;;;;;;5076167;28;20199;-75
2021/04/03 01:37:20;;;;;;;23.13;21.17;;;;;;;;;;5075875;28;20704;-75
2021/04/03 01:39:49;;;;;;;24.35;20.38;;;;;;;;;;5075655;28;20188;-76
2021/04/03 01:42:19;;;;;;;23.48;20.38;;;;;;;;;;5075133;28;20238;-75
2021/04/03 01:44:48;;;;;;;22.15;20.33;;;;;;;;;;5075854;28;20180;-75
2021/04/03 01:47:17;;;;;;;21.58;19.40;;;;;;;;;;5076251;28;20193;-75
2021/04/03 01:49:44;;;;;;;21.90;19.38;;;;;;;;;;5076201;28;20188;-75
2021/04/03 01:52:11;;;;;;;20.65;18.95;;;;;;;;;;5076114;28;20207;-75
2021/04/03 01:54:38;;;;;;;22.15;19.95;;;;;;;;;;5075623;28;20237;-75
2021/04/03 01:57:06;;;;;;;20.65;18.98;;;;;;;;;;5075844;28;20237;-75
2021/04/03 01:59:33;;;;;;;21.67;19.73;;;;;;;;;;5076039;28;20241;-76
2021/04/03 02:02:00;;;;;;;21.73;19.48;;;;;;;;;;5075609;28;20200;-75
2021/04/03 02:04:29;;;;;;;21.27;19.38;;;;;;;;;;5075603;28;20207;-75
2021/04/03 02:06:57;;;;;;;20.27;18.67;;;;;;;;;;5075464;28;20199;-75
2021/04/03 02:09:25;;;;;;;20.27;18.63;;;;;;;;;;5075554;28;20539;-75
2021/04/03 02:11:53;;;;;;;20.48;18.90;;;;;;;;;;5075111;28;20223;-75
2021/04/03 02:14:22;;;;;;;22.27;20.13;;;;;;;;;;5075367;28;20191;-75
2021/04/03 02:16:49;;;;;;;21.85;19.95;;;;;;;;;;5074673;28;20228;-76
2021/04/03 02:19:16;;;;;;;22.45;20.27;;;;;;;;;;5075642;28;20188;-75
2021/04/03 02:21:44;;;;;;;32.88;20.77;;;;;;;;;;5075433;28;20611;-75
2021/04/03 02:24:12;;;;;;;32.55;22.13;;;;;;;;;;5075220;28;20199;-75
2021/04/03 02:26:38;;;;;;;21.90;19.73;;;;;;;;;;5075441;28;20199;-75
2021/04/03 02:29:05;;;;;;;21.88;20.17;;;;;;;;;;5075269;28;20654;-75
2021/04/03 02:31:33;;;;;;;22.83;20.23;;;;;;;;;;5075404;28;20187;-75
2021/04/03 02:34:00;;;;;;;21.35;19.63;;;;;;;;;;5075259;28;20192;-75
2021/04/03 02:36:27;;;;;;;22.98;19.42;;;;;;;;;;5074799;28;20557;-75
2021/04/03 02:38:55;;;;;;;21.02;19.50;;;;;;;;;;5075399;28;20539;-75
2021/04/03 02:41:25;;;;;;;21.63;19.55;;;;;;;;;;5074951;28;20193;-75
2021/04/03 02:43:55;;;;;;;21.48;19.63;;;;;;;;;;5075270;28;20192;-75
2021/04/03 02:46:24;;;;;;;22.13;20.00;;;;;;;;;;5074976;28;20188;-76
2021/04/03 02:48:54;;;;;;;22.20;20.15;;;;;;;;;;5075072;28;20199;-75
2021/04/03 02:51:23;;;;;;;24.88;21.55;;;;;;;;;;5075126;28;20196;-75
2021/04/03 02:53:52;;;;;;;22.60;20.27;;;;;;;;;;5074484;28;20228;-75
2021/04/03 02:56:20;;;;;;;21.48;19.40;;;;;;;;;;5074801;28;20188;-75
2021/04/03 02:58:47;;;;;;;21.40;19.60;;;;;;;;;;5074749;28;20209;-75
2021/04/03 03:01:14;;;;;;;21.73;19.92;;;;;;;;;;5074509;28;20187;-75
2021/04/03 03:03:41;;;;;;;21.75;19.95;;;;;;;;;;5074435;28;20239;-75
2021/04/03 03:06:09;;;;;;;21.65;19.80;;;;;;;;;;5074626;28;20231;-75
2021/04/03 03:08:38;;;;;;;22.17;20.25;;;;;;;;;;5073458;28;20207;-75
2021/04/03 03:11:05;;;;;;;22.20;19.85;;;;;;;;;;5074368;28;20200;-75
2021/04/03 03:13:34;;;;;;;21.98;20.02;;;;;;;;;;5074336;28;20638;-75
2021/04/03 03:16:02;;;;;;;20.90;19.20;;;;;;;;;;5075401;28;20188;-75
2021/04/03 03:18:30;;;;;;;20.73;19.02;;;;;;;;;;5074342;28;20310;-75
2021/04/03 03:20:57;;;;;;;21.00;19.30;;;;;;;;;;5074148;28;20191;-75
2021/04/03 03:23:24;;;;;;;21.77;20.08;;;;;;;;;;5074140;28;20183;-75
2021/04/03 03:25:51;;;;;;;23.55;20.90;;;;;;;;;;5074364;28;20560;-75
2021/04/03 03:28:18;;;;;;;21.92;19.85;;;;;;;;;;5073891;28;20192;-75
2021/04/03 03:30:46;;;;;;;21.20;19.38;;;;;;;;;;5075160;28;20192;-75
2021/04/03 03:33:13;;;;;;;21.52;19.80;;;;;;;;;;5074170;28;20260;-75
2021/04/03 03:35:40;;;;;;;22.13;19.90;;;;;;;;;;5074225;28;20188;-75
2021/04/03 03:38:07;;;;;;;25.40;22.67;;;;;;;;;;5072515;28;20228;-75
2021/04/03 03:40:34;;;;;;;22.55;20.55;;;;;;;;;;5073855;28;20187;-75
2021/04/03 03:43:02;;;;;;;21.45;19.58;;;;;;;;;;5074095;28;20249;-75
2021/04/03 03:45:29;;;;;;;21.85;19.95;;;;;;;;;;5074148;28;20584;-75
2021/04/03 03:47:58;;;;;;;23.15;20.85;;;;;;;;;;5073817;28;20194;-75
2021/04/03 03:50:25;;;;;;;22.95;20.33;;;;;;;;;;5073773;28;20215;-75
2021/04/03 03:52:52;;;;;;;22.27;20.25;;;;;;;;;;5073610;28;20660;-75
2021/04/03 03:55:19;;;;;;;22.63;20.27;;;;;;;;;;5074355;28;20199;-75
2021/04/03 03:57:46;;;;;;;30.13;21.48;;;;;;;;;;5073530;28;20211;-76
2021/04/03 04:00:14;;;;;;;22.50;20.45;;;;;;;;;;5074049;28;20191;-75
2021/04/03 04:02:40;;;;;;;22.27;20.20;;;;;;;;;;5073649;28;20191;-76
2021/04/03 04:05:10;;;;;;;23.55;21.20;;;;;;;;;;5073500;28;20267;-75
2021/04/03 04:07:36;;;;;;;21.98;20.13;;;;;;;;;;5072457;28;20191;-76
2021/04/03 04:10:07;;;;;;;23.13;21.05;;;;;;;;;;5073542;28;20196;-75
2021/04/03 04:12:34;;;;;;;20.83;19.30;;;;;;;;;;5073581;28;20737;-75
2021/04/03 04:15:00;;;;;;;22.52;20.58;;;;;;;;;;5073729;28;20187;-75
2021/04/03 04:17:28;;;;;;;23.10;21.00;;;;;;;;;;5073826;28;20313;-75
2021/04/03 04:19:55;;;;;;;21.58;19.67;;;;;;;;;;5072762;28;20184;-76
2021/04/03 04:22:22;;;;;;;22.30;20.20;;;;;;;;;;5073432;28;20192;-75
2021/04/03 04:24:49;;;;;;;21.52;19.38;;;;;;;;;;5073053;28;20542;-75
2021/04/03 04:27:16;;;;;;;20.50;18.98;;;;;;;;;;5073255;28;20526;-76
2021/04/03 04:29:43;;;;;;;21.80;19.90;;;;;;;;;;5073385;28;20637;-75
2021/04/03 04:32:10;;;;;;;22.45;20.15;;;;;;;;;;5073689;28;20542;-75
2021/04/03 04:34:37;;;;;;;27.48;19.90;;;;;;;;;;5073225;28;20657;-76
2021/04/03 04:37:07;;;;;;;22.55;19.80;;;;;;;;;;5073695;28;20231;-75
2021/04/03 04:39:35;;;;;;;23.77;20.67;;;;;;;;;;5073416;28;20211;-75
2021/04/03 04:42:04;;;;;;;21.58;19.67;;;;;;;;;;5072389;28;20184;-76
2021/04/03 04:44:30;;;;;;;21.63;19.52;;;;;;;;;;5073135;28;20241;-75
2021/04/03 04:46:57;;;;;;;21.60;19.60;;;;;;;;;;5073385;28;20278;-75
2021/04/03 04:49:24;;;;;;;22.67;20.58;;;;;;;;;;5073280;28;20192;-76
2021/04/03 04:51:51;;;;;;;21.67;19.70;;;;;;;;;;5073033;28;20646;-76
2021/04/03 04:54:18;;;;;;;22.20;20.15;;;;;;;;;;5073027;28;20236;-76
2021/04/03 04:56:46;;;;;;;21.83;19.92;;;;;;;;;;5073377;28;20223;-75
2021/04/03 04:59:13;;;;;;;22.13;20.42;;;;;;;;;;5073133;28;20195;-75
2021/04/03 05:01:40;;;;;;;23.52;21.42;;;;;;;;;;5073008;28;20199;-76
2021/04/03 05:04:07;;;;;;;23.90;21.80;;;;;;;;;;5072841;28;20189;-75
2021/04/03 05:06:35;;;;;;;23.38;21.00;;;;;;;;;;5073351;28;20196;-75
2021/04/03 05:09:02;;;;;;;21.83;19.77;;;;;;;;;;5072949;28;20634;-75
2021/04/03 05:11:29;;;;;;;24.00;20.88;;;;;;;;;;5072078;28;20204;-75
2021/04/03 05:13:57;;;;;;;22.15;19.95;;;;;;;;;;5074727;28;20192;-75
2021/04/03 05:16:24;;;;;;;23.85;21.55;;;;;;;;;;5076586;28;20193;-76
2021/04/03 05:18:51;;;;;;;25.40;21.25;;;;;;;;;;5076499;28;20220;-75
2021/04/03 05:21:18;;;;;;;21.90;20.08;;;;;;;;;;5076348;28;20684;-75
2021/04/03 05:23:45;;;;;;;22.23;20.35;;;;;;;;;;5076705;28;20558;-75
2021/04/03 05:26:12;;;;;;;22.75;20.70;;;;;;;;;;5077101;28;20557;-75
2021/04/03 05:28:38;;;;;;;23.88;21.58;;;;;;;;;;5076794;28;20239;-75
2021/04/03 05:31:06;;;;;;;23.92;21.60;;;;;;;;;;5076360;28;20711;-75
2021/04/03 05:33:33;;;;;;;23.23;21.00;;;;;;;;;;5076572;28;20196;-75
2021/04/03 05:36:00;;;;;;;23.27;21.33;;;;;;;;;;5075309;28;20664;-76
2021/04/03 05:38:27;;;;;;;23.38;21.08;;;;;;;;;;5076000;28;20319;-75
2021/04/03 05:40:54;;;;;;;21.92;19.92;;;;;;;;;;5076162;28;20199;-75
2021/04/03 05:43:22;;;;;;;21.65;19.50;;;;;;;;;;5076024;28;20189;-76
2021/04/03 05:45:53;;;;;;;24.52;20.75;;;;;;;;;;5075949;28;20184;-75
2021/04/03 05:48:21;;;;;;;22.80;20.50;;;;;;;;;;5076252;28;20199;-75
2021/04/03 05:50:48;;;;;;;21.92;20.00;;;;;;;;;;5076240;28;20665;-75
2021/04/03 05:53:15;;;;;;;24.73;21.60;;;;;;;;;;5075985;28;20701;-75
2021/04/03 05:55:42;;;;;;;34.55;25.23;;;;;;;;;;5076227;28;20196;-75
2021/04/03 05:58:09;;;;;;;30.92;21.40;;;;;;;;;;5075646;28;20243;-75
2021/04/03 06:00:36;;;;;;;26.55;20.40;;;;;;;;;;5075990;28;20221;-75
2021/04/03 06:03:03;;;;;;;23.45;20.83;;;;;;;;;;5075156;28;20183;-75
2021/04/03 06:05:32;;;;;;;22.95;20.70;;;;;;;;;;5075205;28;20199;-75
2021/04/03 06:07:58;;;;;;;32.35;21.45;;;;;;;;;;5074356;28;20270;-75
2021/04/03 06:10:25;;;;;;;27.20;23.27;;;;;;;;;;5073993;28;20196;-75
2021/04/03 06:12:52;;;;;;;38.63;22.05;;;;;;;;;;5075049;28;20191;-75
2021/04/03 06:15:35;;;;;;;28.38;21.48;;;;;;;;;;5075123;28;20208;-75
2021/04/03 06:18:03;;;;;;;24.75;22.20;;;;;;;;;;5075369;28;20233;-75
2021/04/03 06:20:33;;;;;;;24.80;20.75;;;;;;;;;;5075332;28;20196;-75
2021/04/03 06:23:00;;;;;;;23.95;21.52;;;;;;;;;;5075570;28;20237;-75
2021/04/03 06:25:26;;;;;;;28.23;22.35;;;;;;;;;;5074920;28;20646;-75
2021/04/03 06:28:05;;;;;;;24.23;21.83;;;;;;;;;;5075111;28;20192;-75
2021/04/03 06:30:32;;;;;;;24.58;22.05;;;;;;;;;;5075387;28;20189;-75
2021/04/03 06:33:15;;;;;;;24.33;22.10;;;;;;;;;;5075006;28;20528;-75
2021/04/03 06:35:44;;;;;;;27.42;21.30;;;;;;;;;;5075318;28;20211;-75
2021/04/03 06:38:18;;;;;;;24.80;21.65;;;;;;;;;;5074969;28;20233;-75
2021/04/03 06:40:45;;;;;;;26.92;22.25;;;;;;;;;;5075227;28;20184;-75
2021/04/03 06:43:15;;;;;;;26.92;22.30;;;;;;;;;;5075099;28;20211;-75
2021/04/03 06:45:44;;;;;;;31.40;21.90;;;;;;;;;;5074750;28;20657;-75
2021/04/03 06:48:11;;;;;;;25.65;22.23;;;;;;;;;;5075102;28;20189;-75
2021/04/03 06:50:39;;;;;;;32.67;21.90;;;;;;;;;;5075124;28;20274;-75
2021/04/03 06:53:08;;;;;;;29.00;23.05;;;;;;;;;;5074336;28;20236;-75
2021/04/03 06:55:36;;;;;;;24.27;21.08;;;;;;;;;;5074596;28;20630;-75
2021/04/03 06:58:03;;;;;;;32.35;23.88;;;;;;;;;;5074624;28;20224;-75
2021/04/03 07:00:32;;;;;;;28.65;22.38;;;;;;;;;;5074386;28;20665;-75
2021/04/03 07:03:00;;;;;;;27.73;23.48;;;;;;;;;;5074650;28;20530;-75
2021/04/03 07:05:31;;;;;;;27.33;23.20;;;;;;;;;;5074353;28;20192;-75
2021/04/03 07:08:00;;;;;;;31.50;22.67;;;;;;;;;;5074357;28;20653;-76
2021/04/03 07:10:28;;;;;;;27.15;22.83;;;;;;;;;;5074628;28;20193;-76
2021/04/03 07:12:56;;;;;;;32.17;24.55;;;;;;;;;;5074222;28;20203;-75
2021/04/03 07:15:23;;;;;;;34.92;25.20;;;;;;;;;;5074577;28;20216;-76
2021/04/03 07:17:51;;;;;;;29.20;23.60;;;;;;;;;;5074469;28;20278;-75
2021/04/03 07:20:18;;;;;;;29.00;22.88;;;;;;;;;;5074165;28;20273;-75
2021/04/03 07:22:47;;;;;;;25.63;22.50;;;;;;;;;;5074092;28;20388;-75
2021/04/03 07:25:14;;;;;;;31.25;24.52;;;;;;;;;;5074387;28;20194;-75
2021/04/03 07:27:43;;;;;;;27.98;22.15;;;;;;;;;;5073959;28;20302;-75
2021/04/03 07:30:10;;;;;;;35.15;22.45;;;;;;;;;;5074072;28;20188;-75
2021/04/03 07:32:39;;;;;;;32.20;23.92;;;;;;;;;;5074032;28;20191;-75
2021/04/03 07:35:22;;;;;;;49.42;23.90;;;;;;;;;;5074071;28;20663;-75
2021/04/03 07:37:49;;;;;;;26.60;22.80;;;;;;;;;;5073348;28;20229;-75
2021/04/03 07:40:36;;;;;;;25.48;23.13;;;;;;;;;;5073918;28;20203;-75
2021/04/03 07:43:04;;;;;;;33.35;24.33;;;;;;;;;;5073850;28;20190;-74
2021/04/03 07:45:45;;;;;;;44.03;25.40;;;;;;;;;;5073856;28;20194;-75
2021/04/03 07:48:24;;;;;;;25.77;23.17;;;;;;;;;;5073681;28;20682;-75
2021/04/03 07:50:52;;;;;;;28.73;23.35;;;;;;;;;;5073976;28;20189;-75
2021/04/03 07:53:35;;;;;;;26.02;23.15;;;;;;;;;;5073669;28;20303;-75
2021/04/03 07:56:02;;;;;;;30.20;23.85;;;;;;;;;;5073911;28;20189;-75
2021/04/03 07:58:31;;;;;;;27.58;25.08;;;;;;;;;;5073931;28;20241;-75
2021/04/03 08:01:00;;;;;;;26.85;23.33;;;;;;;;;;5073544;28;20195;-75
2021/04/03 08:03:28;;;;;;;28.38;24.63;;;;;;;;;;5073433;28;20189;-75
2021/04/03 08:05:59;;;;;;;29.17;23.42;;;;;;;;;;5074009;28;20194;-75
2021/04/03 08:08:27;;;;;;;33.25;23.98;;;;;;;;;;5073633;28;20655;-74
2021/04/03 08:11:05;;;;;;;32.55;23.75;;;;;;;;;;5073436;28;20220;-75
2021/04/03 08:13:36;;;;;;;25.48;22.80;;;;;;;;;;5073567;28;20669;-75
2021/04/03 08:16:05;;;;;;;26.17;22.70;;;;;;;;;;5073509;28;20242;-75
2021/04/03 08:18:32;;;;;;;26.52;23.05;;;;;;;;;;5073046;28;20232;-74
2021/04/03 08:20:59;;;;;;;27.48;22.67;;;;;;;;;;5073660;28;20188;-75
2021/04/03 08:23:36;;;;;;;30.98;24.13;;;;;;;;;;5073147;28;20201;-75
2021/04/03 08:26:03;;;;;;;25.45;23.13;;;;;;;;;;5073672;28;20192;-74
2021/04/03 08:28:32;;;;;;;26.55;23.23;;;;;;;;;;5073050;28;20207;-75
2021/04/03 08:30:59;;;;;;;25.52;23.40;;;;;;;;;;5073737;28;20219;-74
2021/04/03 08:33:31;;;;;;;25.17;22.50;;;;;;;;;;5073561;28;20193;-76
2021/04/03 08:35:58;;;;;;;24.40;22.60;;;;;;;;;;5073295;28;20194;-74
2021/04/03 08:38:25;;;;;;;25.58;23.05;;;;;;;;;;5071504;28;20244;-75
2021/04/03 08:40:53;;;;;;;26.60;23.92;;;;;;;;;;5073475;28;20191;-75
2021/04/03 08:43:27;;;;;;;26.52;23.50;;;;;;;;;;5073473;28;20598;-75
2021/04/03 08:45:55;;;;;;;29.90;25.17;;;;;;;;;;5073201;28;20194;-75
2021/04/03 08:48:23;;;;;;;26.10;23.50;;;;;;;;;;5075752;28;20195;-74
2021/04/03 08:50:50;;;;;;;26.57;23.57;;;;;;;;;;5077141;28;20555;-75
2021/04/03 08:53:17;;;;;;;27.75;24.92;;;;;;;;;;5076773;28;20817;-74
2021/04/03 08:55:44;;;;;;;28.15;24.52;;;;;;;;;;5077150;28;20206;-74
2021/04/03 08:58:12;;;;;;;26.33;24.08;;;;;;;;;;5076471;28;20215;-75
2021/04/03 09:00:39;;;;;;;28.90;24.70;;;;;;;;;;5076886;28;20589;-75
2021/04/03 09:03:07;;;;;;;26.60;23.95;;;;;;;;;;5076820;28;20194;-75
2021/04/03 09:05:35;;;;;;;33.25;24.70;;;;;;;;;;5076901;28;20199;-71
2021/04/03 09:08:02;;;;;;;27.75;25.10;;;;;;;;;;5074296;28;20185;-78
2021/04/03 09:10:38;;;;;;;26.55;23.42;;;;;;;;;;5076589;28;20209;-77
2021/04/03 09:13:13;;;;;;;25.08;23.10;;;;;;;;;;5076615;28;20191;-74
2021/04/03 09:15:41;;;;;;;27.48;24.10;;;;;;;;;;5076187;28;20567;-73
2021/04/03 09:18:10;;;;;;;30.50;24.80;;;;;;;;;;5076003;28;20713;-71
2021/04/03 09:20:46;;;;;;;29.35;26.25;;;;;;;;;;5076568;28;20775;-77
2021/04/03 09:23:12;;;;;;;29.00;24.52;;;;;;;;;;5076756;28;20193;-76
2021/04/03 09:25:39;;;;;;;26.63;23.88;;;;;;;;;;5076432;28;20190;-75
2021/04/03 09:28:10;;;;;;;27.30;24.42;;;;;;;;;;5075611;28;20191;-77
2021/04/03 09:30:37;;;;;;;26.67;24.40;;;;;;;;;;5076410;28;20191;-71
2021/04/03 09:33:21;;;;;;;26.97;24.07;;;;;;;;;;5074011;28;20412;-71
2021/04/03 09:35:49;;;;;;;26.98;24.80;;;;;;;;;;5075964;28;20412;-70
2021/04/03 09:38:23;;;;;;;29.50;26.70;;;;;;;;;;5075479;28;20615;-72
2021/04/03 09:40:50;;;;;;;27.40;24.85;;;;;;;;;;5076246;28;20549;-73
2021/04/03 09:43:16;;;;;;;26.77;24.17;;;;;;;;;;5075773;28;20217;-71
2021/04/03 09:45:44;;;;;;;26.83;23.73;;;;;;;;;;5075837;28;20411;-73
2021/04/03 09:48:11;;;;;;;24.70;22.10;;;;;;;;;;5075870;28;20493;-71
2021/04/03 09:50:38;;;;;;;26.85;24.40;;;;;;;;;;5075931;28;20183;-72
2021/04/03 09:53:10;;;;;;;27.23;24.57;;;;;;;;;;5075410;28;20235;-72
2021/04/03 09:55:37;;;;;;;25.60;23.08;;;;;;;;;;5076042;28;20434;-71
2021/04/03 09:58:04;;;;;;;25.38;23.20;;;;;;;;;;5075764;28;20222;-71
2021/04/03 10:00:31;;;;;;;25.63;23.20;;;;;;;;;;5075422;28;20196;-70
2021/04/03 10:02:58;;;;;;;26.27;23.70;;;;;;;;;;5075488;28;20636;-70
2021/04/03 10:05:25;;;;;;;30.37;24.13;;;;;;;;;;5075733;28;20198;-70
2021/04/03 10:07:52;;;;;;;30.75;27.33;;;;;;;;;;5075517;28;20502;-71
2021/04/03 10:10:20;;;;;;;26.70;24.40;;;;;;;;;;5075452;28;20589;-77
2021/04/03 10:12:47;;;;;;;26.57;24.10;;;;;;;;;;5075381;28;20197;-74
2021/04/03 10:15:14;;;;;;;26.15;23.85;;;;;;;;;;5075178;28;20437;-77
2021/04/03 10:17:41;;;;;;;25.20;23.13;;;;;;;;;;5075584;28;20592;-79
2021/04/03 10:20:08;;;;;;;26.63;23.90;;;;;;;;;;5075772;28;20192;-73
2021/04/03 10:22:35;;;;;;;24.85;22.50;;;;;;;;;;5074639;28;20194;-74
2021/04/03 10:25:02;;;;;;;27.43;24.23;;;;;;;;;;5075419;28;20242;-73
2021/04/03 10:27:30;;;;;;;26.90;24.05;;;;;;;;;;5075253;28;20445;-72
2021/04/03 10:29:57;;;;;;;27.92;24.92;;;;;;;;;;5074955;28;20633;-73
2021/04/03 10:32:23;;;;;;;28.10;23.90;;;;;;;;;;5074944;28;20660;-73
2021/04/03 10:34:50;;;;;;;28.85;26.05;;;;;;;;;;5075049;28;20186;-73
2021/04/03 10:37:17;;;;;;;28.97;26.23;;;;;;;;;;5074764;28;20237;-73
2021/04/03 10:39:44;;;;;;;27.10;24.70;;;;;;;;;;5074756;28;20924;-73
2021/04/03 10:42:13;;;;;;;26.67;23.80;;;;;;;;;;5075047;28;20468;-73
2021/04/03 10:44:40;;;;;;;25.73;23.53;;;;;;;;;;5073437;28;20206;-73
2021/04/03 10:47:07;;;;;;;25.92;23.25;;;;;;;;;;5074927;28;20442;-73
2021/04/03 10:49:34;;;;;;;26.70;24.50;;;;;;;;;;5074793;28;20566;-73
2021/04/03 10:52:01;;;;;;;26.97;24.50;;;;;;;;;;5074791;28;20409;-73
2021/04/03 10:54:28;;;;;;;28.35;25.42;;;;;;;;;;5073993;28;20488;-72
2021/04/03 10:56:55;;;;;;;30.77;25.70;;;;;;;;;;5074338;28;20187;-72
2021/04/03 10:59:22;;;;;;;27.60;24.80;;;;;;;;;;5074338;28;20484;-73
2021/04/03 11:01:50;;;;;;;28.67;25.08;;;;;;;;;;5074530;28;20456;-73
2021/04/03 11:04:16;;;;;;;28.33;25.53;;;;;;;;;;5074327;28;20221;-73
2021/04/03 11:06:43;;;;;;;27.30;24.90;;;;;;;;;;5074213;28;20410;-73
2021/04/03 11:09:10;;;;;;;28.13;25.30;;;;;;;;;;5074121;28;20424;-73
2021/04/03 11:11:37;;;;;;;28.00;25.10;;;;;;;;;;5073379;28;20445;-73
2021/04/03 11:14:04;;;;;;;28.17;25.13;;;;;;;;;;5074087;28;20415;-74
2021/04/03 11:16:31;;;;;;;25.10;22.77;;;;;;;;;;5074075;28;20888;-73
2021/04/03 11:18:58;;;;;;;26.63;23.83;;;;;;;;;;5074161;28;20489;-73
2021/04/03 11:21:25;;;;;;;27.27;24.40;;;;;;;;;;5074102;28;20426;-73
2021/04/03 11:23:52;;;;;;;27.03;24.60;;;;;;;;;;5074304;28;20752;-75
2021/04/03 11:26:19;;;;;;;26.67;24.33;;;;;;;;;;5073374;28;20423;-73
2021/04/03 11:28:46;;;;;;;27.00;24.37;;;;;;;;;;5074141;28;20829;-73
2021/04/03 11:31:13;;;;;;;26.80;24.33;;;;;;;;;;5073859;28;20835;-73
2021/04/03 11:33:40;;;;;;;28.77;25.80;;;;;;;;;;5074071;28;20903;-74
2021/04/03 11:36:08;;;;;;;29.00;26.27;;;;;;;;;;5074119;28;20491;-72
2021/04/03 11:38:35;;;;;;;27.80;25.10;;;;;;;;;;5074043;28;20502;-73
2021/04/03 11:41:02;;;;;;;28.27;25.50;;;;;;;;;;5073721;28;20415;-73
2021/04/03 11:43:29;;;;;;;28.07;25.73;;;;;;;;;;5073800;28;20445;-72
2021/04/03 11:45:56;;;;;;;28.20;25.60;;;;;;;;;;5074002;28;20565;-76
2021/04/03 11:48:23;;;;;;;26.80;24.10;;;;;;;;;;5073805;28;20415;-78
2021/04/03 11:50:50;;;;;;;27.27;24.93;;;;;;;;;;5072811;28;20416;-71
2021/04/03 11:53:18;;;;;;;27.23;24.50;;;;;;;;;;5055271;28;20452;-71
2021/04/03 11:55:45;;;;;;;30.00;27.00;;;;;;;;;;5073831;28;20429;-71
2021/04/03 11:58:12;;;;;;;28.33;25.50;;;;;;;;;;5073186;28;20471;-71
2021/04/03 12:00:38;;;;;;;30.27;27.50;;;;;;;;;;5073567;28;20423;-72
2021/04/03 12:03:05;;;;;;;26.77;24.47;;;;;;;;;;5073601;28;20412;-70
2021/04/03 12:05:33;;;;;;;30.00;27.10;;;;;;;;;;5073888;28;20416;-70
2021/04/03 12:08:00;;;;;;;29.00;26.10;;;;;;;;;;5073670;28;20514;-69
2021/04/03 12:10:28;;;;;;;28.10;25.67;;;;;;;;;;5073333;28;20986;-69
2021/04/03 12:12:55;;;;;;;322.87;237.50;;;;;;;;;;5072378;28;20482;-69
2021/04/03 12:15:22;;;;;;;31.03;28.10;;;;;;;;;;5073655;28;20443;-70
2021/04/03 12:17:50;;;;;;;27.07;24.17;;;;;;;;;;5073504;28;20473;-69
2021/04/03 12:20:18;;;;;;;26.20;24.30;;;;;;;;;;5073305;28;20409;-70
2021/04/03 12:22:44;;;;;;;27.53;25.30;;;;;;;;;;5073558;28;20933;-69
2021/04/03 12:25:12;;;;;;;26.50;24.33;;;;;;;;;;5077691;28;20408;-69
2021/04/03 12:27:40;;;;;;;27.03;24.43;;;;;;;;;;5077208;28;20416;-69
2021/04/03 12:30:08;;;;;;;26.43;24.30;;;;;;;;;;5077636;28;20438;-70
2021/04/03 12:32:36;;;;;;;26.40;24.20;;;;;;;;;;5077216;28;20728;-70
2021/04/03 12:35:03;;;;;;;26.60;24.23;;;;;;;;;;5077863;28;20746;-70
2021/04/03 12:37:30;;;;;;;25.87;23.87;;;;;;;;;;5075587;28;20817;-69
2021/04/03 12:39:56;;;;;;;26.80;24.27;;;;;;;;;;5076879;28;20438;-69
2021/04/03 12:42:23;;;;;;;30.63;25.83;;;;;;;;;;5078066;28;20866;-70
2021/04/03 12:44:51;;;;;;;27.40;25.20;;;;;;;;;;5077142;28;20441;-70
2021/04/03 12:47:18;;;;;;;27.07;24.50;;;;;;;;;;5077115;28;20438;-70
2021/04/03 12:49:45;;;;;;;27.00;24.37;;;;;;;;;;5082258;28;20432;-70
2021/04/03 12:52:12;;;;;;;28.67;25.73;;;;;;;;;;5077264;28;20444;-73
2021/04/03 12:54:38;;;;;;;27.20;24.97;;;;;;;;;;5076710;28;20478;-74
2021/04/03 12:57:06;;;;;;;26.77;24.67;;;;;;;;;;5075629;28;20526;-72
2021/04/03 12:59:33;;;;;;;27.40;24.90;;;;;;;;;;5076698;28;20952;-70
2021/04/03 13:02:01;;;;;;;31.00;25.90;;;;;;;;;;5076987;28;20426;-70
2021/04/03 13:04:28;;;;;;;25.27;23.30;;;;;;;;;;5075524;28;20528;-70
2021/04/03 13:06:55;;;;;;;24.87;23.07;;;;;;;;;;5076829;28;20445;-70
2021/04/03 13:09:22;;;;;;;25.37;23.40;;;;;;;;;;5076884;28;20441;-70
2021/04/03 13:11:50;;;;;;;24.70;22.80;;;;;;;;;;5076826;28;20470;-70
2021/04/03 13:14:17;;;;;;;24.50;22.63;;;;;;;;;;5076745;28;20453;-71
2021/04/03 13:16:44;;;;;;;22.50;21.10;;;;;;;;;;5076814;28;20430;-70
2021/04/03 13:19:12;;;;;;;23.93;22.10;;;;;;;;;;5081825;28;20452;-70
2021/04/03 13:21:38;;;;;;;23.50;22.10;;;;;;;;;;5085569;28;20973;-70
2021/04/03 13:24:06;;;;;;;23.53;21.93;;;;;;;;;;5084717;28;20898;-70
2021/04/03 13:26:33;;;;;;;26.83;24.30;;;;;;;;;;5087146;28;20400;-70
2021/04/03 13:29:00;;;;;;;23.63;22.00;;;;;;;;;;5082662;28;20915;-70
2021/04/03 13:31:27;;;;;;;23.00;21.50;;;;;;;;;;5086326;28;20412;-70
2021/04/03 13:33:54;;;;;;;23.13;21.53;;;;;;;;;;5083384;28;20409;-70
2021/04/03 13:36:22;;;;;;;23.90;22.30;;;;;;;;;;5096406;28;20548;-70
2021/04/03 13:38:49;;;;;;;23.27;21.37;;;;;;;;;;5096504;28;20490;-70
2021/04/03 13:41:18;;;;;;;24.00;22.40;;;;;;;;;;5096537;28;20966;-70
2021/04/03 13:43:45;;;;;;;22.93;21.43;;;;;;;;;;5096146;28;20412;-70
2021/04/03 13:46:12;;;;;;;23.97;22.20;;;;;;;;;;5096473;28;20465;-70
2021/04/03 13:48:38;;;;;;;25.30;23.07;;;;;;;;;;5096116;28;20870;-70
2021/04/03 13:51:06;;;;;;;26.03;23.77;;;;;;;;;;5096290;28;20414;-70
2021/04/03 13:53:33;;;;;;;23.70;22.10;;;;;;;;;;5095796;28;20477;-70
2021/04/03 13:56:01;;;;;;;24.80;23.10;;;;;;;;;;5096094;28;20444;-70
2021/04/03 13:58:28;;;;;;;25.13;23.47;;;;;;;;;;5094882;28;20475;-69
2021/04/03 14:03:58;;;;;;;24.60;22.87;;;;;;;;;;5085776;28;20473;-72
2021/04/03 14:06:25;;;;;;;24.37;22.73;;;;;;;;;;5087698;28;21051;-70
2021/04/03 14:08:53;;;;;;;24.30;22.70;;;;;;;;;;5085760;28;20416;-70
2021/04/03 14:11:20;;;;;;;23.97;22.57;;;;;;;;;;5083846;28;20412;-70
2021/04/03 14:13:47;;;;;;;24.47;22.97;;;;;;;;;;5084756;28;20779;-70
2021/04/03 14:19:17;;;;;;;22.73;21.27;;;;;;;;;;5080058;28;20938;-70
2021/04/03 14:21:43;;;;;;;23.73;21.97;;;;;;;;;;5075484;28;20756;-70
2021/04/03 14:24:11;;;;;;;23.80;22.10;;;;;;;;;;5075470;28;20466;-70
2021/04/03 14:26:38;;;;;;;22.60;21.30;;;;;;;;;;5073811;28;20445;-74